sensor_id;sensor_type;location;lat;lon;timestamp;P1;durP1;ratioP1;P2;durP2;ratioP2
32786;SDS011;19139;49.372;8.580;2022-12-07T00:02:07;4.27;;;3.17;;
32786;SDS011;19139;49.372;8.580;2022-12-07T00:04:34;3.00;;;2.63;;
32786;SDS011;19139;49.372;8.580;2022-12-07T00:07:01;3.70;;;2.77;;
32786;SDS011;19139;49.372;8.580;2022-12-07T00:09:28;3.47;;;2.53;;
32786;SDS011;19139;49.372;8.580;2022-12-07T00:11:55;2.97;;;2.50;;
32786;SDS011;19139;49.372;8.580;2022-12-07T00:14:21;3.27;;;2.63;;
32786;SDS011;19139;49.372;8.580;2022-12-07T00:16:49;3.63;;;3.03;;
32786;SDS011;19139;49.372;8.580;2022-12-07T00:19:17;4.17;;;2.73;;
32786;SDS011;19139;49.372;8.580;2022-12-07T00:21:44;3.60;;;2.70;;
32786;SDS011;19139;49.372;8.580;2022-12-07T00:24:11;4.37;;;2.87;;
32786;SDS011;19139;49.372;8.580;2022-12-07T00:26:39;3.73;;;2.70;;
32786;SDS011;19139;49.372;8.580;2022-12-07T00:29:08;3.70;;;2.93;;
32786;SDS011;19139;49.372;8.580;2022-12-07T00:31:43;3.37;;;2.70;;
32786;SDS011;19139;49.372;8.580;2022-12-07T00:34:14;4.27;;;2.97;;
32786;SDS011;19139;49.372;8.580;2022-12-07T00:36:43;4.07;;;2.87;;
32786;SDS011;19139;49.372;8.580;2022-12-07T00:39:10;3.77;;;2.63;;
32786;SDS011;19139;49.372;8.580;2022-12-07T00:41:37;3.67;;;2.80;;
32786;SDS011;19139;49.372;8.580;2022-12-07T00:44:04;5.23;;;2.63;;
32786;SDS011;19139;49.372;8.580;2022-12-07T00:46:31;3.20;;;2.87;;
32786;SDS011;19139;49.372;8.580;2022-12-07T00:48:58;3.93;;;2.60;;
32786;SDS011;19139;49.372;8.580;2022-12-07T00:51:25;2.97;;;2.37;;
32786;SDS011;19139;49.372;8.580;2022-12-07T00:53:52;2.60;;;2.33;;
32786;SDS011;19139;49.372;8.580;2022-12-07T00:56:28;3.70;;;2.63;;
32786;SDS011;19139;49.372;8.580;2022-12-07T00:58:56;2.80;;;2.60;;
32786;SDS011;19139;49.372;8.580;2022-12-07T01:01:25;3.97;;;2.90;;
32786;SDS011;19139;49.372;8.580;2022-12-07T01:03:53;2.43;;;2.13;;
32786;SDS011;19139;49.372;8.580;2022-12-07T01:06:20;4.20;;;2.60;;
32786;SDS011;19139;49.372;8.580;2022-12-07T01:08:48;4.37;;;2.80;;
32786;SDS011;19139;49.372;8.580;2022-12-07T01:11:16;3.30;;;3.00;;
32786;SDS011;19139;49.372;8.580;2022-12-07T01:13:45;2.97;;;2.67;;
32786;SDS011;19139;49.372;8.580;2022-12-07T01:16:13;3.10;;;2.80;;
32786;SDS011;19139;49.372;8.580;2022-12-07T01:18:41;3.10;;;2.60;;
32786;SDS011;19139;49.372;8.580;2022-12-07T01:21:12;3.37;;;2.73;;
32786;SDS011;19139;49.372;8.580;2022-12-07T01:24:02;2.57;;;2.37;;
32786;SDS011;19139;49.372;8.580;2022-12-07T01:26:30;4.67;;;3.00;;
32786;SDS011;19139;49.372;8.580;2022-12-07T01:28:57;5.03;;;2.67;;
32786;SDS011;19139;49.372;8.580;2022-12-07T01:31:25;3.57;;;2.77;;
32786;SDS011;19139;49.372;8.580;2022-12-07T01:33:54;2.67;;;2.10;;
32786;SDS011;19139;49.372;8.580;2022-12-07T01:36:23;4.30;;;2.70;;
32786;SDS011;19139;49.372;8.580;2022-12-07T01:38:53;3.10;;;2.60;;
32786;SDS011;19139;49.372;8.580;2022-12-07T01:41:23;3.33;;;2.73;;
32786;SDS011;19139;49.372;8.580;2022-12-07T01:46:52;2.30;;;2.03;;
32786;SDS011;19139;49.372;8.580;2022-12-07T01:49:23;3.67;;;2.80;;
32786;SDS011;19139;49.372;8.580;2022-12-07T01:51:56;3.90;;;3.53;;
32786;SDS011;19139;49.372;8.580;2022-12-07T01:54:29;2.83;;;2.50;;
32786;SDS011;19139;49.372;8.580;2022-12-07T01:56:57;2.93;;;2.53;;
32786;SDS011;19139;49.372;8.580;2022-12-07T01:59:25;3.53;;;2.60;;
32786;SDS011;19139;49.372;8.580;2022-12-07T02:01:53;3.00;;;2.37;;
32786;SDS011;19139;49.372;8.580;2022-12-07T02:04:22;3.10;;;2.80;;
32786;SDS011;19139;49.372;8.580;2022-12-07T02:06:49;3.37;;;2.80;;
32786;SDS011;19139;49.372;8.580;2022-12-07T02:09:16;4.33;;;2.63;;
32786;SDS011;19139;49.372;8.580;2022-12-07T02:11:43;2.97;;;2.40;;
32786;SDS011;19139;49.372;8.580;2022-12-07T02:14:10;2.73;;;2.40;;
32786;SDS011;19139;49.372;8.580;2022-12-07T02:21:58;2.90;;;2.27;;
32786;SDS011;19139;49.372;8.580;2022-12-07T02:30:33;2.83;;;2.50;;
32786;SDS011;19139;49.372;8.580;2022-12-07T02:35:56;4.03;;;2.90;;
32786;SDS011;19139;49.372;8.580;2022-12-07T02:38:31;2.67;;;2.13;;
32786;SDS011;19139;49.372;8.580;2022-12-07T02:43:43;3.17;;;2.40;;
32786;SDS011;19139;49.372;8.580;2022-12-07T02:46:14;3.63;;;2.57;;
32786;SDS011;19139;49.372;8.580;2022-12-07T02:48:46;2.53;;;2.20;;
32786;SDS011;19139;49.372;8.580;2022-12-07T02:51:15;2.83;;;2.40;;
32786;SDS011;19139;49.372;8.580;2022-12-07T02:53:44;3.20;;;2.90;;
32786;SDS011;19139;49.372;8.580;2022-12-07T03:01:54;2.93;;;2.63;;
32786;SDS011;19139;49.372;8.580;2022-12-07T03:04:52;3.10;;;2.60;;
32786;SDS011;19139;49.372;8.580;2022-12-07T03:10:58;3.07;;;2.43;;
32786;SDS011;19139;49.372;8.580;2022-12-07T03:16:14;4.50;;;2.73;;
32786;SDS011;19139;49.372;8.580;2022-12-07T03:19:05;3.23;;;2.47;;
32786;SDS011;19139;49.372;8.580;2022-12-07T03:21:36;4.27;;;2.97;;
32786;SDS011;19139;49.372;8.580;2022-12-07T03:24:17;3.00;;;2.50;;
32786;SDS011;19139;49.372;8.580;2022-12-07T03:26:49;2.50;;;2.13;;
32786;SDS011;19139;49.372;8.580;2022-12-07T03:29:20;2.77;;;2.30;;
32786;SDS011;19139;49.372;8.580;2022-12-07T03:32:05;3.13;;;2.40;;
32786;SDS011;19139;49.372;8.580;2022-12-07T03:34:51;3.07;;;2.33;;
32786;SDS011;19139;49.372;8.580;2022-12-07T03:37:33;2.70;;;2.10;;
32786;SDS011;19139;49.372;8.580;2022-12-07T03:40:16;3.30;;;2.70;;
32786;SDS011;19139;49.372;8.580;2022-12-07T03:43:00;2.70;;;2.00;;
32786;SDS011;19139;49.372;8.580;2022-12-07T03:45:31;3.00;;;2.70;;
32786;SDS011;19139;49.372;8.580;2022-12-07T03:48:15;2.50;;;2.20;;
32786;SDS011;19139;49.372;8.580;2022-12-07T03:51:00;3.90;;;2.50;;
32786;SDS011;19139;49.372;8.580;2022-12-07T03:53:40;2.70;;;2.30;;
32786;SDS011;19139;49.372;8.580;2022-12-07T03:56:20;2.60;;;2.23;;
32786;SDS011;19139;49.372;8.580;2022-12-07T03:58:48;2.93;;;2.63;;
32786;SDS011;19139;49.372;8.580;2022-12-07T04:01:17;3.73;;;2.70;;
32786;SDS011;19139;49.372;8.580;2022-12-07T04:03:44;2.80;;;2.37;;
32786;SDS011;19139;49.372;8.580;2022-12-07T04:06:10;2.63;;;2.43;;
32786;SDS011;19139;49.372;8.580;2022-12-07T04:08:37;2.77;;;2.40;;
32786;SDS011;19139;49.372;8.580;2022-12-07T04:11:04;2.90;;;2.30;;
32786;SDS011;19139;49.372;8.580;2022-12-07T04:13:30;2.43;;;2.23;;
32786;SDS011;19139;49.372;8.580;2022-12-07T04:16:17;2.97;;;2.67;;
32786;SDS011;19139;49.372;8.580;2022-12-07T04:18:43;2.90;;;2.40;;
32786;SDS011;19139;49.372;8.580;2022-12-07T04:21:10;3.10;;;2.80;;
32786;SDS011;19139;49.372;8.580;2022-12-07T04:23:37;2.70;;;2.27;;
32786;SDS011;19139;49.372;8.580;2022-12-07T04:26:03;2.23;;;2.03;;
32786;SDS011;19139;49.372;8.580;2022-12-07T04:28:30;2.90;;;2.37;;
32786;SDS011;19139;49.372;8.580;2022-12-07T04:30:57;2.73;;;2.20;;
32786;SDS011;19139;49.372;8.580;2022-12-07T04:33:23;3.27;;;2.50;;
32786;SDS011;19139;49.372;8.580;2022-12-07T04:35:50;3.60;;;2.67;;
32786;SDS011;19139;49.372;8.580;2022-12-07T04:38:16;2.90;;;2.40;;
32786;SDS011;19139;49.372;8.580;2022-12-07T04:40:43;3.60;;;2.80;;
32786;SDS011;19139;49.372;8.580;2022-12-07T04:43:09;4.20;;;3.13;;
32786;SDS011;19139;49.372;8.580;2022-12-07T04:45:36;2.20;;;1.97;;
32786;SDS011;19139;49.372;8.580;2022-12-07T04:48:03;2.30;;;2.10;;
32786;SDS011;19139;49.372;8.580;2022-12-07T04:50:29;2.80;;;2.50;;
32786;SDS011;19139;49.372;8.580;2022-12-07T04:52:56;4.23;;;2.30;;
32786;SDS011;19139;49.372;8.580;2022-12-07T04:55:22;3.00;;;2.70;;
32786;SDS011;19139;49.372;8.580;2022-12-07T04:57:49;3.10;;;2.20;;
32786;SDS011;19139;49.372;8.580;2022-12-07T05:00:15;2.63;;;2.03;;
32786;SDS011;19139;49.372;8.580;2022-12-07T05:02:42;2.60;;;2.10;;
32786;SDS011;19139;49.372;8.580;2022-12-07T05:05:09;2.13;;;1.90;;
32786;SDS011;19139;49.372;8.580;2022-12-07T05:07:35;2.27;;;1.80;;
32786;SDS011;19139;49.372;8.580;2022-12-07T05:10:02;2.60;;;2.17;;
32786;SDS011;19139;49.372;8.580;2022-12-07T05:12:29;2.53;;;2.20;;
32786;SDS011;19139;49.372;8.580;2022-12-07T05:14:56;3.00;;;2.70;;
32786;SDS011;19139;49.372;8.580;2022-12-07T05:17:22;2.70;;;2.50;;
32786;SDS011;19139;49.372;8.580;2022-12-07T05:19:49;3.07;;;2.07;;
32786;SDS011;19139;49.372;8.580;2022-12-07T05:22:16;2.50;;;2.17;;
32786;SDS011;19139;49.372;8.580;2022-12-07T05:24:42;2.43;;;2.17;;
32786;SDS011;19139;49.372;8.580;2022-12-07T05:27:09;2.17;;;1.97;;
32786;SDS011;19139;49.372;8.580;2022-12-07T05:29:36;2.63;;;2.40;;
32786;SDS011;19139;49.372;8.580;2022-12-07T05:32:02;4.47;;;2.43;;
32786;SDS011;19139;49.372;8.580;2022-12-07T05:34:29;2.43;;;2.23;;
32786;SDS011;19139;49.372;8.580;2022-12-07T05:36:55;2.43;;;2.10;;
32786;SDS011;19139;49.372;8.580;2022-12-07T05:39:22;2.70;;;2.37;;
32786;SDS011;19139;49.372;8.580;2022-12-07T05:41:48;2.50;;;2.30;;
32786;SDS011;19139;49.372;8.580;2022-12-07T05:44:34;2.37;;;1.97;;
32786;SDS011;19139;49.372;8.580;2022-12-07T05:47:00;2.73;;;2.30;;
32786;SDS011;19139;49.372;8.580;2022-12-07T05:49:27;2.40;;;2.20;;
32786;SDS011;19139;49.372;8.580;2022-12-07T05:51:53;2.93;;;2.63;;
32786;SDS011;19139;49.372;8.580;2022-12-07T05:54:20;2.37;;;2.17;;
32786;SDS011;19139;49.372;8.580;2022-12-07T05:56:47;2.37;;;2.07;;
32786;SDS011;19139;49.372;8.580;2022-12-07T05:59:13;2.53;;;2.33;;
32786;SDS011;19139;49.372;8.580;2022-12-07T06:04:20;2.50;;;2.30;;
32786;SDS011;19139;49.372;8.580;2022-12-07T06:06:48;3.30;;;2.60;;
32786;SDS011;19139;49.372;8.580;2022-12-07T06:09:15;2.90;;;2.33;;
32786;SDS011;19139;49.372;8.580;2022-12-07T06:11:41;3.17;;;2.40;;
32786;SDS011;19139;49.372;8.580;2022-12-07T06:14:26;2.87;;;2.40;;
32786;SDS011;19139;49.372;8.580;2022-12-07T06:16:53;2.23;;;1.93;;
32786;SDS011;19139;49.372;8.580;2022-12-07T06:19:20;2.27;;;1.90;;
32786;SDS011;19139;49.372;8.580;2022-12-07T06:21:47;2.43;;;2.17;;
32786;SDS011;19139;49.372;8.580;2022-12-07T06:24:14;1.80;;;1.70;;
32786;SDS011;19139;49.372;8.580;2022-12-07T06:26:42;2.20;;;2.00;;
32786;SDS011;19139;49.372;8.580;2022-12-07T06:29:09;2.77;;;2.33;;
32786;SDS011;19139;49.372;8.580;2022-12-07T06:31:37;2.00;;;1.80;;
32786;SDS011;19139;49.372;8.580;2022-12-07T06:34:05;2.53;;;2.10;;
32786;SDS011;19139;49.372;8.580;2022-12-07T06:36:36;2.30;;;2.10;;
32786;SDS011;19139;49.372;8.580;2022-12-07T06:39:03;3.17;;;2.60;;
32786;SDS011;19139;49.372;8.580;2022-12-07T06:41:31;2.40;;;2.20;;
32786;SDS011;19139;49.372;8.580;2022-12-07T06:43:58;3.10;;;2.50;;
32786;SDS011;19139;49.372;8.580;2022-12-07T06:46:24;3.30;;;2.30;;
32786;SDS011;19139;49.372;8.580;2022-12-07T06:48:51;2.50;;;2.30;;
32786;SDS011;19139;49.372;8.580;2022-12-07T06:51:18;2.53;;;2.07;;
32786;SDS011;19139;49.372;8.580;2022-12-07T06:53:44;2.50;;;2.00;;
32786;SDS011;19139;49.372;8.580;2022-12-07T06:56:11;2.07;;;1.90;;
32786;SDS011;19139;49.372;8.580;2022-12-07T06:58:38;4.90;;;4.40;;
32786;SDS011;19139;49.372;8.580;2022-12-07T07:01:10;7.50;;;6.10;;
32786;SDS011;19139;49.372;8.580;2022-12-07T07:03:40;10.83;;;6.60;;
32786;SDS011;19139;49.372;8.580;2022-12-07T07:06:07;7.10;;;6.40;;
32786;SDS011;19139;49.372;8.580;2022-12-07T07:08:34;6.67;;;5.97;;
32786;SDS011;19139;49.372;8.580;2022-12-07T07:11:02;7.30;;;6.07;;
32786;SDS011;19139;49.372;8.580;2022-12-07T07:13:30;6.43;;;5.83;;
32786;SDS011;19139;49.372;8.580;2022-12-07T07:15:56;6.07;;;5.47;;
32786;SDS011;19139;49.372;8.580;2022-12-07T07:18:23;7.63;;;5.00;;
32786;SDS011;19139;49.372;8.580;2022-12-07T07:20:50;5.50;;;4.60;;
32786;SDS011;19139;49.372;8.580;2022-12-07T07:23:18;6.57;;;4.73;;
32786;SDS011;19139;49.372;8.580;2022-12-07T07:25:45;7.13;;;5.13;;
32786;SDS011;19139;49.372;8.580;2022-12-07T07:28:12;11.80;;;4.90;;
32786;SDS011;19139;49.372;8.580;2022-12-07T07:30:38;9.47;;;4.30;;
32786;SDS011;19139;49.372;8.580;2022-12-07T07:33:05;5.23;;;4.73;;
32786;SDS011;19139;49.372;8.580;2022-12-07T07:35:33;4.83;;;4.27;;
32786;SDS011;19139;49.372;8.580;2022-12-07T07:38:00;6.00;;;4.87;;
32786;SDS011;19139;49.372;8.580;2022-12-07T07:40:27;5.53;;;4.10;;
32786;SDS011;19139;49.372;8.580;2022-12-07T07:42:55;5.83;;;4.50;;
32786;SDS011;19139;49.372;8.580;2022-12-07T07:45:23;5.40;;;3.90;;
32786;SDS011;19139;49.372;8.580;2022-12-07T07:47:50;5.20;;;3.90;;
32786;SDS011;19139;49.372;8.580;2022-12-07T07:50:18;6.27;;;4.10;;
32786;SDS011;19139;49.372;8.580;2022-12-07T07:52:45;5.43;;;4.07;;
32786;SDS011;19139;49.372;8.580;2022-12-07T07:55:12;7.83;;;4.50;;
32786;SDS011;19139;49.372;8.580;2022-12-07T07:57:39;5.03;;;3.53;;
32786;SDS011;19139;49.372;8.580;2022-12-07T08:00:07;5.73;;;4.47;;
32786;SDS011;19139;49.372;8.580;2022-12-07T08:02:36;5.50;;;4.10;;
32786;SDS011;19139;49.372;8.580;2022-12-07T08:05:03;7.97;;;4.20;;
32786;SDS011;19139;49.372;8.580;2022-12-07T08:07:30;4.47;;;4.00;;
32786;SDS011;19139;49.372;8.580;2022-12-07T08:09:57;5.70;;;4.17;;
32786;SDS011;19139;49.372;8.580;2022-12-07T08:12:23;6.83;;;4.23;;
32786;SDS011;19139;49.372;8.580;2022-12-07T08:14:50;5.23;;;4.10;;
32786;SDS011;19139;49.372;8.580;2022-12-07T08:17:16;6.87;;;4.50;;
32786;SDS011;19139;49.372;8.580;2022-12-07T08:19:43;4.07;;;3.67;;
32786;SDS011;19139;49.372;8.580;2022-12-07T08:22:10;6.10;;;4.87;;
32786;SDS011;19139;49.372;8.580;2022-12-07T08:24:36;4.40;;;3.80;;
32786;SDS011;19139;49.372;8.580;2022-12-07T08:27:03;5.47;;;3.90;;
32786;SDS011;19139;49.372;8.580;2022-12-07T08:29:30;6.00;;;4.17;;
32786;SDS011;19139;49.372;8.580;2022-12-07T08:31:56;5.47;;;4.03;;
32786;SDS011;19139;49.372;8.580;2022-12-07T08:34:23;8.47;;;4.60;;
32786;SDS011;19139;49.372;8.580;2022-12-07T08:36:50;10.37;;;3.90;;
32786;SDS011;19139;49.372;8.580;2022-12-07T08:39:16;7.57;;;4.30;;
32786;SDS011;19139;49.372;8.580;2022-12-07T08:41:58;5.13;;;3.57;;
32786;SDS011;19139;49.372;8.580;2022-12-07T08:44:25;6.83;;;4.10;;
32786;SDS011;19139;49.372;8.580;2022-12-07T08:46:53;5.40;;;3.87;;
32786;SDS011;19139;49.372;8.580;2022-12-07T08:49:30;5.93;;;4.03;;
32786;SDS011;19139;49.372;8.580;2022-12-07T08:52:09;3.93;;;3.53;;
32786;SDS011;19139;49.372;8.580;2022-12-07T08:54:36;6.33;;;3.70;;
32786;SDS011;19139;49.372;8.580;2022-12-07T08:57:04;12.57;;;4.57;;
32786;SDS011;19139;49.372;8.580;2022-12-07T08:59:32;4.17;;;3.57;;
32786;SDS011;19139;49.372;8.580;2022-12-07T09:02:01;5.03;;;3.53;;
32786;SDS011;19139;49.372;8.580;2022-12-07T09:04:30;4.67;;;3.67;;
32786;SDS011;19139;49.372;8.580;2022-12-07T09:06:57;4.57;;;3.37;;
32786;SDS011;19139;49.372;8.580;2022-12-07T09:09:25;5.60;;;4.03;;
32786;SDS011;19139;49.372;8.580;2022-12-07T09:11:51;4.53;;;3.73;;
32786;SDS011;19139;49.372;8.580;2022-12-07T09:14:18;6.27;;;4.53;;
32786;SDS011;19139;49.372;8.580;2022-12-07T09:16:44;4.97;;;3.77;;
32786;SDS011;19139;49.372;8.580;2022-12-07T09:19:11;6.03;;;3.60;;
32786;SDS011;19139;49.372;8.580;2022-12-07T09:21:38;5.60;;;3.83;;
32786;SDS011;19139;49.372;8.580;2022-12-07T09:24:04;5.93;;;4.30;;
32786;SDS011;19139;49.372;8.580;2022-12-07T09:26:31;6.10;;;3.87;;
32786;SDS011;19139;49.372;8.580;2022-12-07T09:28:58;8.57;;;4.23;;
32786;SDS011;19139;49.372;8.580;2022-12-07T09:31:25;4.27;;;3.30;;
32786;SDS011;19139;49.372;8.580;2022-12-07T09:33:53;4.70;;;3.70;;
32786;SDS011;19139;49.372;8.580;2022-12-07T09:36:25;4.80;;;3.30;;
32786;SDS011;19139;49.372;8.580;2022-12-07T09:38:52;6.03;;;3.70;;
32786;SDS011;19139;49.372;8.580;2022-12-07T09:41:19;9.80;;;3.53;;
32786;SDS011;19139;49.372;8.580;2022-12-07T09:43:47;4.70;;;3.53;;
32786;SDS011;19139;49.372;8.580;2022-12-07T09:46:15;5.17;;;3.63;;
32786;SDS011;19139;49.372;8.580;2022-12-07T09:48:45;5.37;;;3.43;;
32786;SDS011;19139;49.372;8.580;2022-12-07T09:51:14;7.43;;;3.97;;
32786;SDS011;19139;49.372;8.580;2022-12-07T09:53:50;7.43;;;3.97;;
32786;SDS011;19139;49.372;8.580;2022-12-07T09:56:18;7.50;;;4.13;;
32786;SDS011;19139;49.372;8.580;2022-12-07T09:58:46;6.60;;;3.40;;
32786;SDS011;19139;49.372;8.580;2022-12-07T10:01:14;5.27;;;3.30;;
32786;SDS011;19139;49.372;8.580;2022-12-07T10:03:48;4.03;;;3.57;;
32786;SDS011;19139;49.372;8.580;2022-12-07T10:06:20;8.40;;;3.87;;
32786;SDS011;19139;49.372;8.580;2022-12-07T10:08:47;5.80;;;3.63;;
32786;SDS011;19139;49.372;8.580;2022-12-07T10:11:14;5.33;;;3.90;;
32786;SDS011;19139;49.372;8.580;2022-12-07T10:13:43;6.73;;;3.90;;
32786;SDS011;19139;49.372;8.580;2022-12-07T10:16:35;6.37;;;4.00;;
32786;SDS011;19139;49.372;8.580;2022-12-07T10:19:17;6.63;;;3.50;;
32786;SDS011;19139;49.372;8.580;2022-12-07T10:21:58;5.70;;;3.80;;
32786;SDS011;19139;49.372;8.580;2022-12-07T10:24:30;6.00;;;3.40;;
32786;SDS011;19139;49.372;8.580;2022-12-07T10:26:57;4.80;;;3.30;;
32786;SDS011;19139;49.372;8.580;2022-12-07T10:34:39;6.63;;;3.10;;
32786;SDS011;19139;49.372;8.580;2022-12-07T10:39:48;6.33;;;3.80;;
32786;SDS011;19139;49.372;8.580;2022-12-07T10:42:22;5.60;;;3.83;;
32786;SDS011;19139;49.372;8.580;2022-12-07T10:44:50;6.97;;;3.60;;
32786;SDS011;19139;49.372;8.580;2022-12-07T10:53:40;5.63;;;3.67;;
32786;SDS011;19139;49.372;8.580;2022-12-07T11:01:33;4.30;;;3.17;;
32786;SDS011;19139;49.372;8.580;2022-12-07T11:04:12;3.77;;;3.30;;
32786;SDS011;19139;49.372;8.580;2022-12-07T11:07:06;6.20;;;4.10;;
32786;SDS011;19139;49.372;8.580;2022-12-07T11:10:00;4.83;;;3.97;;
32786;SDS011;19139;49.372;8.580;2022-12-07T11:15:52;7.80;;;4.47;;
32786;SDS011;19139;49.372;8.580;2022-12-07T11:18:26;7.30;;;4.03;;
32786;SDS011;19139;49.372;8.580;2022-12-07T11:26:12;7.43;;;4.00;;
32786;SDS011;19139;49.372;8.580;2022-12-07T11:29:15;5.87;;;3.87;;
32786;SDS011;19139;49.372;8.580;2022-12-07T11:37:08;6.30;;;3.43;;
32786;SDS011;19139;49.372;8.580;2022-12-07T11:39:41;5.20;;;3.43;;
32786;SDS011;19139;49.372;8.580;2022-12-07T11:42:29;5.23;;;3.43;;
32786;SDS011;19139;49.372;8.580;2022-12-07T11:45:13;5.27;;;4.07;;
32786;SDS011;19139;49.372;8.580;2022-12-07T11:47:47;4.83;;;3.63;;
32786;SDS011;19139;49.372;8.580;2022-12-07T11:50:37;4.23;;;3.70;;
32786;SDS011;19139;49.372;8.580;2022-12-07T11:59:23;7.17;;;4.17;;
32786;SDS011;19139;49.372;8.580;2022-12-07T12:01:53;4.40;;;3.43;;
32786;SDS011;19139;49.372;8.580;2022-12-07T12:04:30;6.50;;;3.43;;
32786;SDS011;19139;49.372;8.580;2022-12-07T12:07:18;6.47;;;3.00;;
32786;SDS011;19139;49.372;8.580;2022-12-07T12:10:14;6.07;;;3.73;;
32786;SDS011;19139;49.372;8.580;2022-12-07T12:21:16;5.43;;;3.23;;
32786;SDS011;19139;49.372;8.580;2022-12-07T12:23:48;4.97;;;3.23;;
32786;SDS011;19139;49.372;8.580;2022-12-07T12:26:21;7.47;;;3.80;;
32786;SDS011;19139;49.372;8.580;2022-12-07T12:29:05;6.03;;;3.80;;
32786;SDS011;19139;49.372;8.580;2022-12-07T12:31:46;7.57;;;3.63;;
32786;SDS011;19139;49.372;8.580;2022-12-07T12:37:45;5.83;;;3.47;;
32786;SDS011;19139;49.372;8.580;2022-12-07T12:40:37;7.67;;;3.77;;
32786;SDS011;19139;49.372;8.580;2022-12-07T12:46:35;3.83;;;2.70;;
32786;SDS011;19139;49.372;8.580;2022-12-07T12:51:43;7.50;;;3.33;;
32786;SDS011;19139;49.372;8.580;2022-12-07T12:57:02;4.60;;;2.90;;
32786;SDS011;19139;49.372;8.580;2022-12-07T12:59:55;4.07;;;3.33;;
32786;SDS011;19139;49.372;8.580;2022-12-07T13:15:37;4.27;;;3.33;;
32786;SDS011;19139;49.372;8.580;2022-12-07T13:20:58;6.40;;;3.30;;
32786;SDS011;19139;49.372;8.580;2022-12-07T13:26:17;3.00;;;2.53;;
32786;SDS011;19139;49.372;8.580;2022-12-07T13:28:46;6.27;;;3.47;;
32786;SDS011;19139;49.372;8.580;2022-12-07T13:33:56;5.30;;;3.33;;
32786;SDS011;19139;49.372;8.580;2022-12-07T13:36:27;3.97;;;3.20;;
32786;SDS011;19139;49.372;8.580;2022-12-07T13:41:43;4.33;;;3.00;;
32786;SDS011;19139;49.372;8.580;2022-12-07T13:49:22;4.40;;;3.23;;
32786;SDS011;19139;49.372;8.580;2022-12-07T13:51:54;3.50;;;3.20;;
32786;SDS011;19139;49.372;8.580;2022-12-07T13:54:32;3.67;;;2.87;;
32786;SDS011;19139;49.372;8.580;2022-12-07T13:57:00;5.10;;;2.90;;
32786;SDS011;19139;49.372;8.580;2022-12-07T13:59:27;5.87;;;3.07;;
32786;SDS011;19139;49.372;8.580;2022-12-07T14:01:56;3.50;;;3.00;;
32786;SDS011;19139;49.372;8.580;2022-12-07T14:04:31;4.17;;;3.23;;
32786;SDS011;19139;49.372;8.580;2022-12-07T14:07:00;4.10;;;2.83;;
32786;SDS011;19139;49.372;8.580;2022-12-07T14:09:52;4.43;;;2.97;;
32786;SDS011;19139;49.372;8.580;2022-12-07T14:12:22;4.47;;;3.20;;
32786;SDS011;19139;49.372;8.580;2022-12-07T14:14:50;3.73;;;2.87;;
32786;SDS011;19139;49.372;8.580;2022-12-07T14:17:18;4.03;;;2.77;;
32786;SDS011;19139;49.372;8.580;2022-12-07T14:19:55;4.40;;;2.90;;
32786;SDS011;19139;49.372;8.580;2022-12-07T14:22:27;4.73;;;3.07;;
32786;SDS011;19139;49.372;8.580;2022-12-07T14:25:00;3.93;;;3.17;;
32786;SDS011;19139;49.372;8.580;2022-12-07T14:27:31;3.30;;;2.80;;
32786;SDS011;19139;49.372;8.580;2022-12-07T14:30:03;4.10;;;3.00;;
32786;SDS011;19139;49.372;8.580;2022-12-07T14:32:31;4.20;;;2.67;;
32786;SDS011;19139;49.372;8.580;2022-12-07T14:35:03;4.53;;;3.00;;
32786;SDS011;19139;49.372;8.580;2022-12-07T14:37:36;4.10;;;3.07;;
32786;SDS011;19139;49.372;8.580;2022-12-07T14:40:04;3.70;;;2.80;;
32786;SDS011;19139;49.372;8.580;2022-12-07T14:42:32;3.67;;;2.50;;
32786;SDS011;19139;49.372;8.580;2022-12-07T14:45:00;3.97;;;2.77;;
32786;SDS011;19139;49.372;8.580;2022-12-07T14:47:27;5.03;;;2.83;;
32786;SDS011;19139;49.372;8.580;2022-12-07T14:50:15;3.40;;;2.70;;
32786;SDS011;19139;49.372;8.580;2022-12-07T14:52:44;4.73;;;2.97;;
32786;SDS011;19139;49.372;8.580;2022-12-07T14:55:35;4.00;;;2.73;;
32786;SDS011;19139;49.372;8.580;2022-12-07T14:58:02;3.60;;;2.50;;
32786;SDS011;19139;49.372;8.580;2022-12-07T15:00:29;3.63;;;2.90;;
32786;SDS011;19139;49.372;8.580;2022-12-07T15:02:56;3.23;;;2.40;;
32786;SDS011;19139;49.372;8.580;2022-12-07T15:05:23;3.87;;;3.00;;
32786;SDS011;19139;49.372;8.580;2022-12-07T15:07:50;4.40;;;2.40;;
32786;SDS011;19139;49.372;8.580;2022-12-07T15:10:23;3.70;;;2.53;;
32786;SDS011;19139;49.372;8.580;2022-12-07T15:13:01;3.93;;;2.30;;
32786;SDS011;19139;49.372;8.580;2022-12-07T15:15:48;3.53;;;2.70;;
32786;SDS011;19139;49.372;8.580;2022-12-07T15:18:16;4.27;;;3.27;;
32786;SDS011;19139;49.372;8.580;2022-12-07T15:20:43;3.77;;;2.47;;
32786;SDS011;19139;49.372;8.580;2022-12-07T15:23:11;4.00;;;2.87;;
32786;SDS011;19139;49.372;8.580;2022-12-07T15:25:41;3.70;;;2.80;;
32786;SDS011;19139;49.372;8.580;2022-12-07T15:28:11;4.57;;;2.60;;
32786;SDS011;19139;49.372;8.580;2022-12-07T15:30:39;5.93;;;2.93;;
32786;SDS011;19139;49.372;8.580;2022-12-07T15:33:09;5.00;;;3.07;;
32786;SDS011;19139;49.372;8.580;2022-12-07T15:35:40;6.33;;;2.60;;
32786;SDS011;19139;49.372;8.580;2022-12-07T15:38:07;4.43;;;2.57;;
32786;SDS011;19139;49.372;8.580;2022-12-07T15:40:34;3.77;;;2.53;;
32786;SDS011;19139;49.372;8.580;2022-12-07T15:43:01;3.17;;;2.67;;
32786;SDS011;19139;49.372;8.580;2022-12-07T15:45:29;5.17;;;2.70;;
32786;SDS011;19139;49.372;8.580;2022-12-07T15:47:56;4.13;;;2.47;;
32786;SDS011;19139;49.372;8.580;2022-12-07T15:50:42;5.20;;;2.63;;
32786;SDS011;19139;49.372;8.580;2022-12-07T15:53:09;7.83;;;3.80;;
32786;SDS011;19139;49.372;8.580;2022-12-07T15:55:38;3.03;;;2.47;;
32786;SDS011;19139;49.372;8.580;2022-12-07T15:58:05;5.63;;;2.73;;
32786;SDS011;19139;49.372;8.580;2022-12-07T16:00:31;4.57;;;3.10;;
32786;SDS011;19139;49.372;8.580;2022-12-07T16:02:59;4.87;;;2.83;;
32786;SDS011;19139;49.372;8.580;2022-12-07T16:05:25;5.80;;;3.03;;
32786;SDS011;19139;49.372;8.580;2022-12-07T16:07:52;4.83;;;2.70;;
32786;SDS011;19139;49.372;8.580;2022-12-07T16:10:19;6.70;;;3.07;;
32786;SDS011;19139;49.372;8.580;2022-12-07T16:12:45;5.37;;;2.30;;
32786;SDS011;19139;49.372;8.580;2022-12-07T16:15:12;3.87;;;2.73;;
32786;SDS011;19139;49.372;8.580;2022-12-07T16:17:39;4.63;;;2.57;;
32786;SDS011;19139;49.372;8.580;2022-12-07T16:20:06;3.60;;;2.20;;
32786;SDS011;19139;49.372;8.580;2022-12-07T16:22:34;5.63;;;2.63;;
32786;SDS011;19139;49.372;8.580;2022-12-07T16:25:00;5.57;;;2.30;;
32786;SDS011;19139;49.372;8.580;2022-12-07T16:27:28;5.63;;;2.67;;
32786;SDS011;19139;49.372;8.580;2022-12-07T16:29:54;6.27;;;3.87;;
32786;SDS011;19139;49.372;8.580;2022-12-07T16:32:21;5.53;;;2.90;;
32786;SDS011;19139;49.372;8.580;2022-12-07T16:34:48;3.40;;;2.40;;
32786;SDS011;19139;49.372;8.580;2022-12-07T16:37:15;6.47;;;2.60;;
32786;SDS011;19139;49.372;8.580;2022-12-07T16:39:41;3.93;;;2.57;;
32786;SDS011;19139;49.372;8.580;2022-12-07T16:42:08;5.50;;;2.40;;
32786;SDS011;19139;49.372;8.580;2022-12-07T16:44:35;4.33;;;2.70;;
32786;SDS011;19139;49.372;8.580;2022-12-07T16:47:01;4.27;;;2.70;;
32786;SDS011;19139;49.372;8.580;2022-12-07T16:49:28;2.93;;;2.20;;
32786;SDS011;19139;49.372;8.580;2022-12-07T16:51:55;6.00;;;2.33;;
32786;SDS011;19139;49.372;8.580;2022-12-07T16:54:42;6.40;;;2.90;;
32786;SDS011;19139;49.372;8.580;2022-12-07T16:57:09;3.70;;;2.30;;
32786;SDS011;19139;49.372;8.580;2022-12-07T16:59:35;5.47;;;2.67;;
32786;SDS011;19139;49.372;8.580;2022-12-07T17:02:02;4.33;;;2.30;;
32786;SDS011;19139;49.372;8.580;2022-12-07T17:04:29;4.97;;;2.60;;
32786;SDS011;19139;49.372;8.580;2022-12-07T17:06:56;4.57;;;2.53;;
32786;SDS011;19139;49.372;8.580;2022-12-07T17:09:24;3.60;;;1.97;;
32786;SDS011;19139;49.372;8.580;2022-12-07T17:11:51;3.77;;;2.70;;